createdAt,value
2019-03-16T00:00:57.448Z,13.97
2019-03-16T00:03:25.884Z,13.90
2019-03-16T00:05:54.457Z,13.87
2019-03-16T00:08:23.047Z,12.47
2019-03-16T00:10:51.577Z,12.37
2019-03-16T00:13:20.005Z,9.00
2019-03-16T00:15:48.600Z,16.83
2019-03-16T00:18:17.052Z,11.30
2019-03-16T00:20:45.528Z,17.80
2019-03-16T00:23:14.261Z,11.70
2019-03-16T00:25:42.712Z,9.43
2019-03-16T00:28:11.163Z,14.53
2019-03-16T00:30:39.706Z,13.33
2019-03-16T00:33:08.215Z,10.43
2019-03-16T00:35:36.740Z,10.37
2019-03-16T00:38:05.848Z,13.20
2019-03-16T00:40:34.370Z,11.20
2019-03-16T00:43:10.804Z,10.40
2019-03-16T00:45:39.268Z,13.77
2019-03-16T00:48:07.741Z,11.37
2019-03-16T00:50:36.162Z,12.33
2019-03-16T00:53:05.038Z,9.90
2019-03-16T00:55:33.426Z,11.57
2019-03-16T00:58:01.807Z,14.93
2019-03-16T01:00:30.322Z,16.87
2019-03-16T01:02:58.716Z,13.43
2019-03-16T01:05:27.100Z,14.67
2019-03-16T01:07:55.640Z,14.93
2019-03-16T01:10:24.092Z,13.57
2019-03-16T01:12:52.556Z,13.63
2019-03-16T01:15:21.016Z,15.73
2019-03-16T01:17:49.408Z,11.87
2019-03-16T01:20:17.841Z,12.07
2019-03-16T01:22:46.343Z,13.60
2019-03-16T01:25:14.875Z,18.03
2019-03-16T01:27:43.334Z,14.60
2019-03-16T01:30:12.608Z,14.57
2019-03-16T01:32:41.223Z,13.37
2019-03-16T01:35:09.996Z,10.93
2019-03-16T01:37:38.625Z,17.93
2019-03-16T01:40:32.488Z,12.43
2019-03-16T01:43:00.985Z,15.23
2019-03-16T01:45:29.445Z,12.80
2019-03-16T01:47:57.920Z,13.53
2019-03-16T01:50:26.396Z,12.63
2019-03-16T01:52:54.788Z,16.50
2019-03-16T01:55:23.387Z,14.87
2019-03-16T01:57:51.824Z,14.73
2019-03-16T02:00:20.338Z,18.03
2019-03-16T02:02:55.732Z,19.17
2019-03-16T02:05:18.868Z,15.47
2019-03-16T02:07:47.333Z,13.77
2019-03-16T02:10:15.836Z,21.07
2019-03-16T02:12:44.320Z,14.60
2019-03-16T02:15:12.868Z,17.47
2019-03-16T02:17:41.361Z,17.33
2019-03-16T02:20:09.845Z,16.70
2019-03-16T02:22:38.336Z,10.77
2019-03-16T02:25:06.808Z,15.30
2019-03-16T02:27:35.260Z,13.27
2019-03-16T02:30:03.795Z,18.27
2019-03-16T02:32:32.654Z,13.17
2019-03-16T02:35:01.117Z,10.73
2019-03-16T02:37:29.619Z,15.37
2019-03-16T02:39:58.082Z,17.63
2019-03-16T02:42:26.525Z,11.43
2019-03-16T02:44:54.940Z,13.57
2019-03-16T02:47:23.425Z,15.60
2019-03-16T02:49:51.891Z,10.23
2019-03-16T02:52:20.365Z,9.33
2019-03-16T02:54:48.849Z,9.10
2019-03-16T02:57:17.317Z,13.63
2019-03-16T02:59:45.761Z,10.93
2019-03-16T03:02:14.292Z,14.87
2019-03-16T03:04:46.231Z,10.67
2019-03-16T03:07:15.224Z,15.40
2019-03-16T03:09:43.653Z,15.30
2019-03-16T03:12:12.111Z,9.60
2019-03-16T03:14:40.782Z,16.13
2019-03-16T03:17:09.335Z,7.53
2019-03-16T03:19:37.869Z,12.60
2019-03-16T03:22:06.421Z,13.70
2019-03-16T03:24:34.851Z,11.57
2019-03-16T03:27:03.315Z,11.67
2019-03-16T03:29:31.866Z,15.87
2019-03-16T03:32:00.428Z,10.10
2019-03-16T03:34:28.899Z,9.07
2019-03-16T03:36:57.630Z,11.37
2019-03-16T03:39:26.209Z,8.20
2019-03-16T03:41:54.912Z,13.03
2019-03-16T03:44:23.413Z,18.07
2019-03-16T03:46:51.902Z,11.37
2019-03-16T03:49:20.397Z,8.67
2019-03-16T03:51:48.998Z,13.40
2019-03-16T03:54:17.482Z,7.83
2019-03-16T03:56:45.941Z,13.60
2019-03-16T03:59:14.541Z,10.63
2019-03-16T04:01:43.100Z,14.23
2019-03-16T04:04:15.806Z,13.80
2019-03-16T04:06:41.800Z,15.40
2019-03-16T04:09:10.252Z,13.90
2019-03-16T04:11:38.696Z,14.73
2019-03-16T04:14:07.202Z,11.37
2019-03-16T04:16:35.623Z,12.97
2019-03-16T04:19:04.142Z,13.77
2019-03-16T04:21:32.612Z,16.07
2019-03-16T04:24:01.004Z,14.40
2019-03-16T04:26:56.781Z,12.80
2019-03-16T04:29:31.553Z,16.70
2019-03-16T04:32:00.003Z,21.53
2019-03-16T04:34:29.891Z,20.13
2019-03-16T04:36:58.516Z,17.40
2019-03-16T04:39:27.010Z,19.60
2019-03-16T04:41:55.463Z,11.13
2019-03-16T04:44:24.154Z,14.80
2019-03-16T04:46:52.530Z,21.10
2019-03-16T04:49:20.968Z,18.33
2019-03-16T04:51:49.448Z,14.47
2019-03-16T04:54:17.848Z,14.00
2019-03-16T04:56:46.357Z,15.87
2019-03-16T04:59:14.853Z,14.70
2019-03-16T05:01:43.333Z,12.33
2019-03-16T05:04:11.990Z,15.23
2019-03-16T05:06:40.471Z,19.33
2019-03-16T05:09:09.021Z,18.33
2019-03-16T05:11:37.460Z,17.03
2019-03-16T05:14:05.906Z,15.00
2019-03-16T05:16:34.422Z,17.30
2019-03-16T05:19:02.927Z,19.53
2019-03-16T05:21:31.348Z,16.93
2019-03-16T05:24:02.716Z,17.97
2019-03-16T05:26:30.055Z,17.00
2019-03-16T05:28:58.430Z,18.40
2019-03-16T05:31:26.815Z,18.23
2019-03-16T05:33:55.417Z,22.87
2019-03-16T05:36:23.784Z,17.50
2019-03-16T05:38:52.316Z,16.73
2019-03-16T05:41:23.211Z,20.27
2019-03-16T05:43:51.584Z,19.03
2019-03-16T05:46:20.357Z,22.93
2019-03-16T05:48:48.811Z,18.20
2019-03-16T05:51:17.172Z,19.10
2019-03-16T05:53:45.580Z,14.27
2019-03-16T05:56:14.036Z,22.97
2019-03-16T05:58:42.483Z,34.07
2019-03-16T06:01:10.996Z,19.43
2019-03-16T06:03:39.489Z,16.80
2019-03-16T06:06:07.924Z,19.20
2019-03-16T06:08:36.443Z,22.43
2019-03-16T06:11:04.992Z,21.33
2019-03-16T06:13:33.509Z,22.13
2019-03-16T06:16:02.068Z,21.67
2019-03-16T06:18:30.607Z,21.30
2019-03-16T06:20:59.493Z,30.40
2019-03-16T06:23:28.338Z,24.37
2019-03-16T06:25:56.869Z,25.07
2019-03-16T06:28:25.240Z,23.87
2019-03-16T06:30:53.745Z,19.13
2019-03-16T06:33:22.230Z,18.67
2019-03-16T06:35:50.712Z,23.37
2019-03-16T06:38:19.273Z,27.23
2019-03-16T06:40:47.659Z,21.60
2019-03-16T06:43:16.128Z,21.57
2019-03-16T06:45:44.524Z,19.83
2019-03-16T06:48:14.012Z,25.47
2019-03-16T06:50:42.429Z,28.00
2019-03-16T06:53:10.965Z,25.80
2019-03-16T06:55:39.490Z,25.77
2019-03-16T06:58:07.945Z,25.63
2019-03-16T07:00:36.440Z,25.33
2019-03-16T07:03:04.945Z,28.30
2019-03-16T07:05:38.763Z,32.50
2019-03-16T07:08:03.538Z,22.83
2019-03-16T07:10:32.040Z,22.67
2019-03-16T07:13:00.517Z,22.10
2019-03-16T07:15:29.057Z,24.27
2019-03-16T07:17:57.576Z,21.53
2019-03-16T07:20:26.523Z,20.50
2019-03-16T07:22:54.992Z,27.47
2019-03-16T07:25:23.456Z,21.93
2019-03-16T07:27:52.064Z,26.23
2019-03-16T07:30:20.518Z,21.37
2019-03-16T07:32:48.901Z,21.47
2019-03-16T07:35:18.005Z,27.03
2019-03-16T07:38:16.460Z,24.30
2019-03-16T07:40:45.073Z,17.60
2019-03-16T07:43:13.554Z,16.83
2019-03-16T07:45:42.035Z,12.50
2019-03-16T07:48:10.517Z,15.33
2019-03-16T07:50:39.235Z,14.43
2019-03-16T07:53:07.745Z,13.23
2019-03-16T07:55:36.204Z,15.43
2019-03-16T07:58:04.680Z,15.97
2019-03-16T08:00:33.165Z,13.77
2019-03-16T08:03:01.705Z,14.77
2019-03-16T08:12:26.792Z,17.10
2019-03-16T08:14:55.285Z,15.90
2019-03-16T08:17:23.740Z,14.53
2019-03-16T08:19:52.277Z,13.00
2019-03-16T08:22:20.717Z,18.23
2019-03-16T08:24:49.210Z,14.70
2019-03-16T08:27:17.670Z,12.73
2019-03-16T08:29:46.084Z,13.53
2019-03-16T08:32:14.644Z,16.17
2019-03-16T08:34:43.420Z,21.07
2019-03-16T08:37:11.872Z,14.10
2019-03-16T08:39:40.340Z,12.90
2019-03-16T08:42:08.902Z,14.10
2019-03-16T08:44:37.297Z,12.57
2019-03-16T08:47:05.747Z,11.97
2019-03-16T08:49:34.223Z,11.10
2019-03-16T08:52:02.684Z,9.67
2019-03-16T08:54:31.129Z,11.20
2019-03-16T08:56:59.541Z,12.90
2019-03-16T08:59:28.024Z,10.50
2019-03-16T09:01:56.498Z,9.43
2019-03-16T09:04:24.924Z,9.30
2019-03-16T09:06:53.382Z,6.90
2019-03-16T09:09:21.777Z,9.63
2019-03-16T09:11:50.258Z,10.27
2019-03-16T09:14:18.703Z,8.33
2019-03-16T09:16:47.287Z,9.27
2019-03-16T09:19:15.764Z,8.53
2019-03-16T09:21:44.157Z,8.87
2019-03-16T09:24:12.682Z,9.60
2019-03-16T09:26:41.216Z,8.40
2019-03-16T09:29:14.897Z,10.30
2019-03-16T09:31:39.781Z,10.10
2019-03-16T09:34:08.308Z,10.77
2019-03-16T09:36:36.840Z,11.10
2019-03-16T09:39:06.554Z,8.50
2019-03-16T09:41:35.117Z,12.13
2019-03-16T09:44:03.946Z,10.20
2019-03-16T09:46:32.451Z,10.80
2019-03-16T09:49:01.012Z,13.10
2019-03-16T09:51:29.684Z,10.50
2019-03-16T09:53:58.212Z,10.93
2019-03-16T09:56:26.732Z,10.60
2019-03-16T09:58:55.237Z,9.17
2019-03-16T10:01:23.745Z,10.30
2019-03-16T10:03:52.220Z,10.43
2019-03-16T10:06:20.685Z,7.70
2019-03-16T10:08:49.251Z,9.70
2019-03-16T10:11:17.772Z,9.60
2019-03-16T10:13:46.224Z,7.57
2019-03-16T10:16:15.744Z,5.80
2019-03-16T10:18:44.138Z,8.40
2019-03-16T10:21:12.596Z,9.07
2019-03-16T10:23:41.071Z,8.87
2019-03-16T10:26:09.562Z,4.83
2019-03-16T10:28:43.537Z,6.70
2019-03-16T10:31:08.273Z,4.30
2019-03-16T10:33:36.792Z,4.13
2019-03-16T10:36:05.264Z,6.17
2019-03-16T10:38:33.784Z,4.17
2019-03-16T10:41:02.266Z,5.53
2019-03-16T10:43:30.868Z,5.27
2019-03-16T10:45:59.415Z,5.03
2019-03-16T10:48:27.904Z,7.10
2019-03-16T10:50:56.388Z,7.10
2019-03-16T10:53:24.869Z,7.17
2019-03-16T10:55:53.429Z,6.97
2019-03-16T10:58:21.912Z,5.97
2019-03-16T11:00:50.396Z,6.43
2019-03-16T11:03:19.005Z,5.10
2019-03-16T11:05:47.637Z,6.03
2019-03-16T11:08:17.172Z,6.70
2019-03-16T11:10:45.640Z,4.97
2019-03-16T11:13:15.314Z,4.47
2019-03-16T11:15:44.218Z,4.37
2019-03-16T11:18:12.772Z,4.57
2019-03-16T11:20:41.251Z,4.90
2019-03-16T11:23:09.785Z,5.53
2019-03-16T11:25:38.281Z,3.80
2019-03-16T11:28:07.815Z,5.93
2019-03-16T11:30:43.119Z,5.97
2019-03-16T11:33:11.570Z,4.27
2019-03-16T11:35:41.050Z,4.37
2019-03-16T11:38:10.578Z,5.07
2019-03-16T11:40:39.071Z,4.23
2019-03-16T11:43:07.548Z,5.30
2019-03-16T11:45:36.151Z,3.43
2019-03-16T11:48:06.551Z,2.97
2019-03-16T11:50:35.058Z,5.03
2019-03-16T11:53:10.525Z,4.40
2019-03-16T11:55:39.040Z,6.17
2019-03-16T11:58:07.484Z,5.17
2019-03-16T12:00:56.884Z,3.77
2019-03-16T12:03:25.462Z,4.37
2019-03-16T12:05:55.220Z,3.90
2019-03-16T12:08:25.140Z,4.17
2019-03-16T12:10:53.760Z,4.83
2019-03-16T12:13:22.291Z,4.17
2019-03-16T12:15:50.809Z,4.23
2019-03-16T12:18:19.301Z,4.13
2019-03-16T12:20:47.827Z,5.60
2019-03-16T12:23:16.530Z,3.80
2019-03-16T12:25:45.015Z,5.10
2019-03-16T12:28:13.656Z,4.03
2019-03-16T12:30:42.200Z,6.57
2019-03-16T12:33:10.582Z,7.17
2019-03-16T12:35:39.214Z,3.47
2019-03-16T12:38:07.669Z,4.43
2019-03-16T12:40:36.117Z,6.13
2019-03-16T12:43:06.668Z,6.30
2019-03-16T12:45:35.145Z,5.33
2019-03-16T12:48:05.987Z,4.17
2019-03-16T12:50:34.468Z,3.40
2019-03-16T12:53:04.011Z,4.90
2019-03-16T12:55:32.538Z,5.30
2019-03-16T12:58:00.978Z,6.03
2019-03-16T13:00:29.554Z,5.20
2019-03-16T13:02:58.149Z,3.63
2019-03-16T13:05:26.680Z,5.70
2019-03-16T13:07:55.226Z,4.47
2019-03-16T13:10:25.709Z,5.70
2019-03-16T13:12:55.757Z,6.03
2019-03-16T13:15:24.194Z,3.17
2019-03-16T13:17:52.676Z,3.57
2019-03-16T13:20:21.236Z,4.10
2019-03-16T13:22:49.652Z,7.13
2019-03-16T13:25:19.166Z,4.37
2019-03-16T13:27:47.631Z,4.30
2019-03-16T13:30:16.164Z,12.23
2019-03-16T13:32:44.641Z,4.17
2019-03-16T13:35:13.194Z,2.53
2019-03-16T13:37:41.840Z,4.60
2019-03-16T13:40:11.069Z,4.90
2019-03-16T13:42:39.604Z,5.87
2019-03-16T13:45:08.231Z,3.87
2019-03-16T13:47:37.140Z,4.70
2019-03-16T13:50:12.048Z,3.43
2019-03-16T13:52:40.772Z,4.47
2019-03-16T13:55:09.253Z,2.97
2019-03-16T13:57:37.795Z,4.50
2019-03-16T14:00:11.771Z,6.07
2019-03-16T14:02:36.951Z,3.30
2019-03-16T14:05:05.444Z,2.20
2019-03-16T14:07:34.205Z,2.90
2019-03-16T14:10:02.644Z,4.10
2019-03-16T14:12:32.944Z,4.00
2019-03-16T14:15:01.320Z,2.20
2019-03-16T14:17:30.434Z,3.90
2019-03-16T14:19:58.994Z,4.67
2019-03-16T14:22:27.460Z,3.27
2019-03-16T14:24:55.890Z,4.43
2019-03-16T14:27:24.724Z,2.70
2019-03-16T14:29:53.240Z,2.67
2019-03-16T14:32:22.095Z,2.03
2019-03-16T14:34:50.982Z,3.20
2019-03-16T14:37:19.702Z,2.50
2019-03-16T14:39:56.566Z,2.77
2019-03-16T14:42:25.065Z,2.97
2019-03-16T14:44:54.585Z,3.60
2019-03-16T14:47:23.134Z,4.43
2019-03-16T14:49:52.864Z,4.00
2019-03-16T14:52:21.350Z,4.20
2019-03-16T14:54:52.291Z,3.40
2019-03-16T14:57:20.760Z,3.13
2019-03-16T14:59:49.156Z,2.10
2019-03-16T15:02:17.639Z,6.10
2019-03-16T15:04:53.217Z,4.57
2019-03-16T15:07:21.778Z,3.73
2019-03-16T15:09:50.155Z,2.10
2019-03-16T15:12:18.596Z,5.27
2019-03-16T15:14:47.052Z,4.77
2019-03-16T15:17:25.610Z,4.47
2019-03-16T15:19:54.229Z,4.03
2019-03-16T15:22:22.637Z,3.17
2019-03-16T15:24:51.215Z,3.87
2019-03-16T15:27:20.223Z,3.07
2019-03-16T15:29:48.744Z,4.30
2019-03-16T15:32:17.226Z,3.13
2019-03-16T15:34:45.635Z,2.27
2019-03-16T15:37:14.078Z,2.50
2019-03-16T15:39:42.483Z,2.83
2019-03-16T15:42:11.019Z,3.77
2019-03-16T15:44:39.498Z,4.03
2019-03-16T15:47:07.893Z,2.10
2019-03-16T15:49:36.537Z,3.60
2019-03-16T15:52:05.078Z,4.23
2019-03-16T15:54:33.513Z,2.67
2019-03-16T15:57:01.980Z,3.70
2019-03-16T15:59:30.465Z,2.93
2019-03-16T16:01:59.050Z,2.40
2019-03-16T16:04:27.523Z,6.33
2019-03-16T16:06:56.324Z,3.60
2019-03-16T16:09:24.705Z,2.60
2019-03-16T16:11:53.137Z,4.83
2019-03-16T16:14:21.721Z,3.93
2019-03-16T16:16:50.271Z,3.23
2019-03-16T16:19:21.614Z,3.43
2019-03-16T16:21:48.834Z,2.63
2019-03-16T16:24:17.289Z,3.60
2019-03-16T16:26:45.840Z,2.57
2019-03-16T16:29:14.390Z,4.07
2019-03-16T16:31:42.898Z,9.93
2019-03-16T16:34:11.383Z,3.27
2019-03-16T16:36:40.759Z,3.27
2019-03-16T16:39:09.124Z,3.97
2019-03-16T16:41:37.596Z,4.07
2019-03-16T16:44:06.241Z,4.47
2019-03-16T16:46:34.688Z,3.73
2019-03-16T16:49:03.233Z,4.17
2019-03-16T16:51:31.824Z,2.70
2019-03-16T16:54:00.563Z,3.97
2019-03-16T16:56:29.025Z,5.20
2019-03-16T16:58:57.626Z,2.70
2019-03-16T17:01:56.461Z,5.70
2019-03-16T17:04:26.569Z,2.77
2019-03-16T17:06:55.199Z,5.50
2019-03-16T17:09:23.701Z,2.33
2019-03-16T17:11:52.286Z,2.50
2019-03-16T17:14:25.037Z,3.73
2019-03-16T17:16:58.480Z,5.50
2019-03-16T17:19:25.481Z,3.43
2019-03-16T17:21:53.903Z,2.87
2019-03-16T17:24:22.246Z,3.30
2019-03-16T17:26:52.966Z,5.60
2019-03-16T17:29:21.407Z,4.20
2019-03-16T17:31:51.311Z,11.70
2019-03-16T17:34:22.069Z,5.07
2019-03-16T17:36:50.429Z,5.33
2019-03-16T17:39:18.888Z,5.17
2019-03-16T17:41:47.576Z,2.60
2019-03-16T17:44:17.976Z,4.07
2019-03-16T17:46:46.571Z,7.07
2019-03-16T17:49:15.027Z,4.10
2019-03-16T17:51:48.057Z,3.60
2019-03-16T17:54:16.664Z,5.23
2019-03-16T17:56:46.368Z,5.33
2019-03-16T17:59:15.207Z,9.53
2019-03-16T18:01:54.246Z,5.60
2019-03-16T18:04:13.828Z,4.27
2019-03-16T18:06:46.483Z,3.87
2019-03-16T18:09:15.436Z,4.20
2019-03-16T18:11:44.130Z,5.47
2019-03-16T18:14:13.228Z,5.10
2019-03-16T18:16:41.769Z,4.13
2019-03-16T18:19:10.922Z,4.17
2019-03-16T18:21:39.393Z,2.47
2019-03-16T18:24:07.843Z,3.37
2019-03-16T18:26:36.555Z,2.50
2019-03-16T18:29:05.110Z,4.93
2019-03-16T18:31:34.801Z,2.83
2019-03-16T18:34:03.344Z,5.97
2019-03-16T18:36:31.730Z,4.90
2019-03-16T18:39:00.152Z,4.67
2019-03-16T18:41:28.577Z,3.90
2019-03-16T18:43:57.043Z,5.73
2019-03-16T18:46:25.407Z,5.43
2019-03-16T18:48:55.777Z,3.20
2019-03-16T18:51:24.158Z,3.07
2019-03-16T18:53:52.677Z,3.17
2019-03-16T18:56:21.052Z,5.20
2019-03-16T18:58:49.558Z,5.67
2019-03-16T19:01:18.048Z,4.07
2019-03-16T19:03:46.442Z,4.77
2019-03-16T19:06:22.711Z,4.07
2019-03-16T19:08:51.172Z,4.27
2019-03-16T19:11:19.516Z,5.77
2019-03-16T19:13:47.858Z,8.30
2019-03-16T19:16:19.616Z,4.50
2019-03-16T19:18:48.232Z,7.50
2019-03-16T19:21:16.688Z,7.40
2019-03-16T19:23:45.208Z,6.63
2019-03-16T19:26:13.664Z,6.77
2019-03-16T19:28:42.044Z,7.40
2019-03-16T19:31:10.504Z,8.10
2019-03-16T19:33:39.962Z,8.27
2019-03-16T19:36:08.479Z,9.77
2019-03-16T19:38:37.943Z,6.43
2019-03-16T19:41:06.291Z,7.57
2019-03-16T19:43:34.648Z,5.63
2019-03-16T19:46:03.143Z,6.67
2019-03-16T19:48:31.553Z,7.00
2019-03-16T19:50:59.987Z,6.27
2019-03-16T19:53:28.453Z,9.23
2019-03-16T19:55:56.971Z,7.90
2019-03-16T19:58:25.584Z,6.97
2019-03-16T20:00:53.974Z,10.77
2019-03-16T20:03:22.327Z,5.57
2019-03-16T20:05:50.759Z,5.87
2019-03-16T20:08:19.116Z,7.23
2019-03-16T20:10:47.472Z,6.93
2019-03-16T20:13:15.838Z,7.47
2019-03-16T20:15:44.294Z,8.30
2019-03-16T20:18:12.707Z,5.53
2019-03-16T20:20:41.270Z,8.37
2019-03-16T20:23:09.587Z,8.00
2019-03-16T20:25:38.028Z,8.07
2019-03-16T20:28:06.503Z,6.57
2019-03-16T20:30:34.950Z,5.97
2019-03-16T20:33:04.467Z,11.05
2019-03-16T20:35:33.370Z,6.87
2019-03-16T20:38:01.832Z,7.50
2019-03-16T20:40:30.435Z,6.13
2019-03-16T20:43:04.012Z,6.23
2019-03-16T20:45:32.741Z,7.00
2019-03-16T20:48:01.275Z,6.53
2019-03-16T20:50:32.124Z,7.77
2019-03-16T20:53:00.888Z,6.07
2019-03-16T20:55:29.535Z,7.70
2019-03-16T20:57:58.040Z,7.33
2019-03-16T21:00:26.579Z,10.23
2019-03-16T21:02:55.515Z,9.37
2019-03-16T21:05:24.012Z,7.57
2019-03-16T21:07:53.662Z,7.73
2019-03-16T21:10:30.428Z,7.50
2019-03-16T21:12:58.975Z,5.73
2019-03-16T21:15:33.316Z,7.67
2019-03-16T21:18:01.844Z,8.17
2019-03-16T21:20:30.607Z,10.60
2019-03-16T21:22:59.004Z,7.07
2019-03-16T21:25:27.481Z,8.43
2019-03-16T21:27:56.003Z,7.90
2019-03-16T21:30:29.196Z,8.30
2019-03-16T21:33:02.695Z,6.60
2019-03-16T21:35:31.817Z,9.87
2019-03-16T21:38:10.158Z,8.97
2019-03-16T21:40:38.848Z,6.73
2019-03-16T21:43:07.474Z,8.33
2019-03-16T21:45:36.402Z,6.23
2019-03-16T21:48:05.112Z,6.57
2019-03-16T21:50:33.565Z,8.27
2019-03-16T21:53:03.011Z,8.10
2019-03-16T21:55:31.977Z,8.10
2019-03-16T21:58:03.592Z,11.47
2019-03-16T22:00:32.742Z,6.63
2019-03-16T22:03:01.885Z,9.75
2019-03-16T22:05:30.418Z,10.03
2019-03-16T22:07:59.332Z,11.07
2019-03-16T22:10:27.875Z,9.93
2019-03-16T22:12:56.502Z,11.63
2019-03-16T22:15:26.503Z,13.57
2019-03-16T22:17:55.004Z,12.00
2019-03-16T22:20:24.635Z,9.23
2019-03-16T22:22:53.192Z,9.40
2019-03-16T22:25:21.797Z,9.63
2019-03-16T22:27:53.176Z,11.97
2019-03-16T22:30:21.760Z,13.68
2019-03-16T22:32:50.251Z,7.78
2019-03-16T22:35:20.719Z,9.43
2019-03-16T22:37:49.150Z,5.47
2019-03-16T22:40:17.771Z,7.03
2019-03-16T22:42:46.295Z,6.00
2019-03-16T22:45:16.223Z,5.10
2019-03-16T22:47:44.781Z,6.50
2019-03-16T22:50:13.436Z,6.83
2019-03-16T22:52:42.155Z,5.33
2019-03-16T22:55:10.860Z,4.90
2019-03-16T22:57:39.287Z,5.90
2019-03-16T23:00:08.809Z,4.27
2019-03-16T23:02:38.306Z,5.47
2019-03-16T23:05:07.445Z,4.70
2019-03-16T23:07:35.955Z,6.57
2019-03-16T23:10:05.387Z,4.40
2019-03-16T23:12:34.481Z,5.87
2019-03-16T23:15:03.150Z,4.00
2019-03-16T23:17:31.640Z,4.30
2019-03-16T23:20:00.247Z,5.40
2019-03-16T23:22:30.606Z,4.73
2019-03-16T23:24:59.777Z,6.07
2019-03-16T23:27:28.843Z,6.57
2019-03-16T23:29:57.291Z,4.67
2019-03-16T23:32:25.642Z,5.03
2019-03-16T23:34:54.028Z,7.80
2019-03-16T23:37:25.222Z,6.27
2019-03-16T23:39:53.551Z,4.53
2019-03-16T23:42:22.003Z,4.70
2019-03-16T23:44:50.398Z,4.73
2019-03-16T23:47:19.400Z,4.13
2019-03-16T23:49:49.964Z,5.23
2019-03-16T23:52:18.306Z,5.10
2019-03-16T23:54:47.472Z,7.80
2019-03-16T23:57:15.983Z,4.23
2019-03-16T23:59:44.320Z,5.50
